Date,TemperatureHighF,TemperatureAvgF,TemperatureLowF,DewpointHighF,DewpointAvgF,DewpointLowF,HumidityHigh,HumidityAvg,HumidityLow,PressureMaxIn,PressureMinIn,WindSpeedMaxMPH,WindSpeedAvgMPH,GustSpeedMaxMPH,PrecipitationSumIn
2013-1-1,79,72,63,64,62,59,90,71,56,30.20,30.06,7,1,10,0.00
2013-1-2,83,70,58,68,63,57,97,82,53,30.10,30.00,2,0,4,0.00
2013-1-3,82,70,63,69,66,62,96,89,64,30.14,30.04,2,0,3,0.00
2013-1-4,80,71,64,72,68,62,98,90,72,30.24,30.11,2,0,4,0.00
2013-1-5,78,70,66,72,68,65,97,92,78,30.26,30.17,4,0,5,0.01
2013-1-6,82,71,62,74,68,61,98,90,71,30.20,30.07,4,1,10,0.03
2013-1-7,81,73,66,72,69,65,97,89,73,30.17,30.09,4,1,8,0.01
2013-1-8,79,74,70,74,71,68,96,90,82,30.23,30.10,4,1,9,0.09
2013-1-9,82,77,73,74,72,70,95,85,74,30.30,30.18,7,2,10,0.00
2013-1-10,80,76,74,71,68,65,85,77,63,30.31,30.20,8,2,13,0.00
2013-1-11,79,75,73,71,69,65,91,80,72,30.28,30.17,7,3,12,0.00
2013-1-12,82,76,72,69,66,64,80,73,63,30.20,30.11,6,1,7,0.00
2013-1-13,81,75,73,70,67,63,83,75,66,30.14,30.09,6,2,10,0.00
2013-1-14,80,75,68,69,67,63,87,76,64,30.18,30.13,5,1,7,0.00
2013-1-15,79,74,72,69,66,63,82,76,69,30.15,30.06,6,1,8,0.00
2013-1-16,82,73,61,70,66,60,97,80,64,30.12,30.02,8,1,8,0.00
2013-1-17,83,72,60,73,66,53,93,81,65,30.10,29.96,5,1,13,0.01
2013-1-18,72,63,52,61,53,45,84,71,60,30.24,30.10,5,1,8,0.00
2013-1-19,76,71,66,68,64,58,97,80,65,30.22,30.11,4,0,8,0.04
2013-1-20,80,71,63,72,67,63,98,87,72,30.15,30.04,2,0,6,0.00
2013-1-21,80,71,65,71,68,64,97,88,71,30.08,29.97,3,0,5,0.67
2013-1-22,68,66,64,64,57,52,96,73,60,30.23,30.02,5,1,7,0.00
2013-1-23,77,67,60,63,56,52,83,70,50,30.31,30.21,2,0,4,0.00
2013-1-24,76,66,58,56,53,48,83,66,41,30.31,30.22,4,0,5,0.00
2013-1-25,79,65,56,59,56,51,95,74,48,30.30,30.20,3,0,6,0.00
2013-1-26,80,66,56,61,56,51,96,75,45,30.27,30.17,2,0,3,0.00
2013-1-27,81,68,55,65,59,55,97,75,47,30.30,30.21,6,1,8,0.00
2013-1-28,80,74,71,69,66,63,86,74,64,30.33,30.24,8,2,11,0.00
2013-1-29,78,74,72,72,69,66,93,83,76,30.25,30.13,7,2,11,0.03
2013-1-30,80,74,71,69,66,64,90,76,64,30.13,29.98,7,2,13,0.00
2013-1-31,71,65,55,70,58,41,96,79,54,30.19,29.95,5,0,10,0.09